createdAt,value
2018-01-11T00:00:18.865Z,9.40
2018-01-11T00:02:46.388Z,8.73
2018-01-11T00:05:13.924Z,12.13
2018-01-11T00:07:41.452Z,8.23
2018-01-11T00:10:08.963Z,10.07
2018-01-11T00:12:36.495Z,7.97
2018-01-11T00:15:04.009Z,9.83
2018-01-11T00:17:31.543Z,7.87
2018-01-11T00:19:59.061Z,7.50
2018-01-11T00:22:26.631Z,8.30
2018-01-11T00:24:54.173Z,8.67
2018-01-11T00:27:21.678Z,12.70
2018-01-11T00:29:49.202Z,9.93
2018-01-11T00:32:16.718Z,10.27
2018-01-11T00:34:44.239Z,9.43
2018-01-11T00:37:11.749Z,8.30
2018-01-11T00:39:39.284Z,11.20
2018-01-11T00:42:06.816Z,11.50
2018-01-11T00:44:35.127Z,8.57
2018-01-11T00:47:02.635Z,11.33
2018-01-11T00:49:30.160Z,8.77
2018-01-11T00:51:57.664Z,11.03
2018-01-11T00:54:25.191Z,13.63
2018-01-11T00:56:53.506Z,9.07
2018-01-11T00:59:21.024Z,12.00
2018-01-11T01:01:48.527Z,11.03
2018-01-11T01:04:16.835Z,11.33
2018-01-11T01:06:44.342Z,7.80
2018-01-11T01:09:11.843Z,7.00
2018-01-11T01:11:39.375Z,8.70
2018-01-11T01:14:06.884Z,9.77
2018-01-11T01:16:34.416Z,9.13
2018-01-11T01:19:01.916Z,10.80
2018-01-11T01:21:29.434Z,9.60
2018-01-11T01:23:56.955Z,8.57
2018-01-11T01:26:24.479Z,9.83
2018-01-11T01:28:52.017Z,9.40
2018-01-11T01:31:21.489Z,10.27
2018-01-11T01:33:49.810Z,8.77
2018-01-11T01:36:17.335Z,8.60
2018-01-11T01:38:44.850Z,12.53
2018-01-11T01:41:12.368Z,8.17
2018-01-11T01:43:39.886Z,7.40
2018-01-11T01:46:07.418Z,10.87
2018-01-11T01:48:42.838Z,10.30
2018-01-11T01:51:11.127Z,10.30
2018-01-11T01:53:38.626Z,13.10
2018-01-11T01:56:06.154Z,9.30
2018-01-11T01:58:33.692Z,11.63
2018-01-11T02:01:01.227Z,15.60
2018-01-11T02:03:29.494Z,15.73
2018-01-11T02:05:56.990Z,8.63
2018-01-11T02:08:24.519Z,12.03
2018-01-11T02:10:52.026Z,9.53
2018-01-11T02:13:20.310Z,9.70
2018-01-11T02:15:48.576Z,9.00
2018-01-11T02:18:16.106Z,11.57
2018-01-11T02:20:43.626Z,7.90
2018-01-11T02:23:11.154Z,9.23
2018-01-11T02:25:38.686Z,9.43
2018-01-11T02:28:06.963Z,13.13
2018-01-11T02:30:34.486Z,10.50
2018-01-11T02:33:01.984Z,8.20
2018-01-11T02:35:29.519Z,13.57
2018-01-11T02:37:57.026Z,10.50
2018-01-11T02:40:24.527Z,11.70
2018-01-11T02:42:52.814Z,11.70
2018-01-11T02:45:21.743Z,12.53
2018-01-11T02:47:49.276Z,11.63
2018-01-11T02:50:16.775Z,11.53
2018-01-11T02:52:45.060Z,7.43
2018-01-11T02:55:13.334Z,10.53
2018-01-11T02:57:40.858Z,12.97
2018-01-11T03:00:08.408Z,10.10
2018-01-11T03:02:35.912Z,10.70
2018-01-11T03:05:03.498Z,12.13
2018-01-11T03:07:30.997Z,17.20
2018-01-11T03:09:59.287Z,21.23
2018-01-11T03:12:27.587Z,13.00
2018-01-11T03:14:55.874Z,8.00
2018-01-11T03:17:24.157Z,15.70
2018-01-11T03:19:52.464Z,12.70
2018-01-11T03:22:19.962Z,11.33
2018-01-11T03:24:47.485Z,12.30
2018-01-11T03:27:15.776Z,11.87
2018-01-11T03:29:44.048Z,9.40
2018-01-11T03:32:11.580Z,11.13
2018-01-11T03:34:39.094Z,11.40
2018-01-11T03:37:06.631Z,12.93
2018-01-11T03:39:34.146Z,9.60
2018-01-11T03:42:02.444Z,10.30
2018-01-11T03:44:30.702Z,12.63
2018-01-11T03:46:58.234Z,10.37
2018-01-11T03:49:25.730Z,9.83
2018-01-11T03:51:53.237Z,10.10
2018-01-11T03:54:21.535Z,10.93
2018-01-11T03:56:49.810Z,11.30
2018-01-11T03:59:17.326Z,9.73
2018-01-11T04:01:44.953Z,7.37
2018-01-11T04:04:12.442Z,9.30
2018-01-11T04:06:40.714Z,10.63
2018-01-11T04:09:08.238Z,12.60
2018-01-11T04:11:35.758Z,10.57
2018-01-11T04:14:03.268Z,10.70
2018-01-11T04:16:30.795Z,10.20
2018-01-11T04:18:59.087Z,7.80
2018-01-11T04:21:26.606Z,9.33
2018-01-11T04:23:54.130Z,11.57
2018-01-11T04:26:21.658Z,13.27
2018-01-11T04:28:49.150Z,12.20
2018-01-11T04:31:16.674Z,11.73
2018-01-11T04:33:44.183Z,11.90
2018-01-11T04:36:11.701Z,9.50
2018-01-11T04:38:39.990Z,9.37
2018-01-11T04:41:08.252Z,8.80
2018-01-11T04:43:35.787Z,9.70
2018-01-11T04:46:03.287Z,10.93
2018-01-11T04:48:30.804Z,9.70
2018-01-11T04:50:58.308Z,10.67
2018-01-11T04:53:25.843Z,10.37
2018-01-11T04:55:53.342Z,11.90
2018-01-11T04:58:20.874Z,8.30
2018-01-11T05:00:52.962Z,10.10
2018-01-11T05:03:21.273Z,10.63
2018-01-11T05:05:48.787Z,9.13
2018-01-11T05:08:16.287Z,9.73
2018-01-11T05:10:43.823Z,9.00
2018-01-11T05:13:12.086Z,8.93
2018-01-11T05:15:39.628Z,9.10
2018-01-11T05:18:07.130Z,9.80
2018-01-11T05:20:34.656Z,8.47
2018-01-11T05:23:02.935Z,7.43
2018-01-11T05:25:31.230Z,9.60
2018-01-11T05:27:59.531Z,9.20
2018-01-11T05:30:27.821Z,11.67
2018-01-11T05:32:55.330Z,8.63
2018-01-11T05:35:22.855Z,13.10
2018-01-11T05:37:51.114Z,13.00
2018-01-11T05:40:18.638Z,10.33
2018-01-11T05:42:46.151Z,15.03
2018-01-11T05:45:14.461Z,17.07
2018-01-11T05:47:41.965Z,14.30
2018-01-11T05:50:09.483Z,10.83
2018-01-11T05:52:36.979Z,8.53
2018-01-11T05:55:04.504Z,11.37
2018-01-11T05:57:32.862Z,10.50
2018-01-11T06:00:00.368Z,11.50
2018-01-11T06:02:27.894Z,13.60
2018-01-11T06:04:56.162Z,12.00
2018-01-11T06:07:23.683Z,9.50
2018-01-11T06:09:51.187Z,11.63
2018-01-11T06:12:18.725Z,10.50
2018-01-11T06:14:46.220Z,11.60
2018-01-11T06:17:13.749Z,14.27
2018-01-11T06:19:42.038Z,14.10
2018-01-11T06:22:10.336Z,11.63
2018-01-11T06:24:37.871Z,13.20
2018-01-11T06:27:05.403Z,23.53
2018-01-11T06:29:32.941Z,13.80
2018-01-11T06:32:00.463Z,11.37
2018-01-11T06:34:28.006Z,13.03
2018-01-11T06:36:55.515Z,13.70
2018-01-11T06:39:23.037Z,13.50
2018-01-11T06:41:50.559Z,15.87
2018-01-11T06:44:18.060Z,14.23
2018-01-11T06:46:45.587Z,14.60
2018-01-11T06:49:13.856Z,10.33
2018-01-11T06:51:41.400Z,15.00
2018-01-11T06:54:08.902Z,13.20
2018-01-11T06:56:37.191Z,15.10
2018-01-11T06:59:04.692Z,13.60
2018-01-11T07:01:32.224Z,10.60
2018-01-11T07:03:59.723Z,11.00
2018-01-11T07:06:27.243Z,12.53
2018-01-11T07:08:54.771Z,13.93
2018-01-11T07:11:23.035Z,14.40
2018-01-11T07:13:51.327Z,16.37
2018-01-11T07:16:18.822Z,17.73
2018-01-11T07:18:46.351Z,21.23
2018-01-11T07:21:13.852Z,14.17
2018-01-11T07:23:41.374Z,11.20
2018-01-11T07:26:08.884Z,15.10
2018-01-11T07:28:36.411Z,12.70
2018-01-11T07:31:03.933Z,13.13
2018-01-11T07:33:32.207Z,16.53
2018-01-11T07:36:00.512Z,13.57
2018-01-11T07:38:28.020Z,15.17
2018-01-11T07:40:55.545Z,16.23
2018-01-11T07:43:23.057Z,15.30
2018-01-11T07:45:51.353Z,13.43
2018-01-11T07:48:18.859Z,15.40
2018-01-11T07:50:46.397Z,21.10
2018-01-11T07:53:13.908Z,12.23
2018-01-11T07:55:42.174Z,11.43
2018-01-11T07:58:09.698Z,12.57
2018-01-11T08:00:37.204Z,15.23
2018-01-11T08:03:05.495Z,14.13
2018-01-11T08:05:33.002Z,18.20
2018-01-11T08:08:00.530Z,16.87
2018-01-11T08:10:28.030Z,12.43
2018-01-11T08:12:55.556Z,12.10
2018-01-11T08:15:23.055Z,11.93
2018-01-11T08:17:50.579Z,12.37
2018-01-11T08:20:18.083Z,13.23
2018-01-11T08:22:46.394Z,21.33
2018-01-11T08:25:13.902Z,12.73
2018-01-11T08:27:41.411Z,22.30
2018-01-11T08:30:08.940Z,13.63
2018-01-11T08:32:37.208Z,13.37
2018-01-11T08:35:04.731Z,13.83
2018-01-11T08:37:32.231Z,14.83
2018-01-11T08:40:00.531Z,14.80
2018-01-11T08:42:28.027Z,19.07
2018-01-11T08:44:55.551Z,15.57
2018-01-11T08:47:23.084Z,13.03
2018-01-11T08:49:51.489Z,15.53
2018-01-11T08:52:18.991Z,14.17
2018-01-11T08:54:47.271Z,14.60
2018-01-11T08:57:14.795Z,16.33
2018-01-11T08:59:42.305Z,15.67
2018-01-11T09:02:09.828Z,15.80
2018-01-11T09:04:37.347Z,15.10
2018-01-11T09:07:05.651Z,15.67
2018-01-11T09:09:33.162Z,15.83
2018-01-11T09:12:00.680Z,12.23
2018-01-11T09:14:28.204Z,15.10
2018-01-11T09:16:56.476Z,26.03
2018-01-11T09:19:24.776Z,15.20
2018-01-11T09:21:52.288Z,16.73
2018-01-11T09:24:19.812Z,12.10
2018-01-11T09:26:47.327Z,17.57
2018-01-11T09:29:15.622Z,17.93
2018-01-11T09:31:43.130Z,16.60
2018-01-11T09:34:10.656Z,14.40
2018-01-11T09:36:38.156Z,13.80
2018-01-11T09:39:05.682Z,21.50
2018-01-11T09:41:33.186Z,17.43
2018-01-11T09:44:01.491Z,17.83
2018-01-11T09:46:29.000Z,17.67
2018-01-11T09:48:56.570Z,15.40
2018-01-11T09:51:24.078Z,14.03
2018-01-11T09:53:51.582Z,15.93
2018-01-11T09:56:19.115Z,17.50
2018-01-11T09:58:46.614Z,17.50
2018-01-11T10:01:14.143Z,14.80
2018-01-11T10:03:41.646Z,14.37
2018-01-11T10:06:09.946Z,17.93
2018-01-11T10:08:37.454Z,14.90
2018-01-11T10:11:04.987Z,17.03
2018-01-11T10:13:32.499Z,16.73
2018-01-11T10:16:00.769Z,18.57
2018-01-11T10:18:29.064Z,18.20
2018-01-11T10:20:56.564Z,20.67
2018-01-11T10:23:24.093Z,18.70
2018-01-11T10:25:51.604Z,20.93
2018-01-11T10:28:19.902Z,15.70
2018-01-11T10:30:48.176Z,16.00
2018-01-11T10:33:16.467Z,15.20
2018-01-11T10:35:44.737Z,16.43
2018-01-11T10:38:13.034Z,18.60
2018-01-11T10:40:40.539Z,19.93
2018-01-11T10:43:08.066Z,17.13
2018-01-11T10:45:35.570Z,15.10
2018-01-11T10:48:03.106Z,19.13
2018-01-11T10:50:30.606Z,18.47
2018-01-11T10:52:58.907Z,20.63
2018-01-11T10:55:26.416Z,16.13
2018-01-11T10:57:53.928Z,17.20
2018-01-11T11:00:22.312Z,16.63
2018-01-11T11:02:49.814Z,16.23
2018-01-11T11:05:17.353Z,16.67
2018-01-11T11:07:44.855Z,14.53
2018-01-11T11:10:13.149Z,21.20
2018-01-11T11:12:40.675Z,16.13
2018-01-11T11:15:08.203Z,15.73
2018-01-11T11:17:35.732Z,19.40
2018-01-11T11:20:03.310Z,14.20
2018-01-11T11:22:30.793Z,14.87
2018-01-11T11:24:58.335Z,15.90
2018-01-11T11:27:25.838Z,15.50
2018-01-11T11:29:54.111Z,15.67
2018-01-11T11:32:21.647Z,18.53
2018-01-11T11:34:49.182Z,14.40
2018-01-11T11:37:16.680Z,13.60
2018-01-11T11:39:44.188Z,15.00
2018-01-11T11:42:11.722Z,16.97
2018-01-11T11:44:39.954Z,15.37
2018-01-11T11:47:07.528Z,14.63
2018-01-11T11:49:35.034Z,13.70
2018-01-11T11:52:02.539Z,11.87
2018-01-11T11:54:30.061Z,14.73
2018-01-11T11:56:57.563Z,16.80
2018-01-11T11:59:25.101Z,17.73
2018-01-11T12:01:52.602Z,14.17
2018-01-11T12:06:54.859Z,17.47
2018-01-11T12:09:22.384Z,19.80
2018-01-11T12:11:49.886Z,25.03
2018-01-11T12:14:17.412Z,19.07
2018-01-11T12:16:44.914Z,20.80
2018-01-11T12:19:12.462Z,20.83
2018-01-11T12:21:39.974Z,17.27
2018-01-11T12:24:07.491Z,19.53
2018-01-11T12:26:35.023Z,16.43
2018-01-11T12:29:02.528Z,20.60
2018-01-11T12:31:30.830Z,18.67
2018-01-11T12:33:58.334Z,20.77
2018-01-11T12:36:25.867Z,21.73
2018-01-11T12:38:53.441Z,17.90
2018-01-11T12:41:20.938Z,21.20
2018-01-11T12:43:49.212Z,19.93
2018-01-11T12:46:17.515Z,16.07
2018-01-11T12:48:45.024Z,16.90
2018-01-11T12:51:12.552Z,16.23
2018-01-11T12:53:40.080Z,16.37
2018-01-11T12:56:07.587Z,16.67
2018-01-11T12:58:35.109Z,18.33
2018-01-11T13:01:02.619Z,18.63
2018-01-11T13:03:30.156Z,18.33
2018-01-11T13:05:57.660Z,14.17
2018-01-11T13:08:25.951Z,21.03
2018-01-11T13:10:53.481Z,16.70
2018-01-11T13:13:21.016Z,18.37
2018-01-11T13:15:48.515Z,13.87
2018-01-11T13:18:16.816Z,23.23
2018-01-11T13:20:44.351Z,17.17
2018-01-11T13:23:12.620Z,16.03
2018-01-11T13:25:40.890Z,15.80
2018-01-11T13:28:08.427Z,18.97
2018-01-11T13:30:35.928Z,27.30
2018-01-11T13:33:04.228Z,23.60
2018-01-11T13:35:31.764Z,29.23
2018-01-11T13:38:00.037Z,20.73
2018-01-11T13:40:28.303Z,22.80
2018-01-11T13:42:56.608Z,21.30
2018-01-11T13:45:24.115Z,22.37
2018-01-11T13:47:51.616Z,19.83
2018-01-11T13:50:19.158Z,15.90
2018-01-11T13:52:47.431Z,16.80
2018-01-11T13:55:15.702Z,14.80
2018-01-11T13:57:43.226Z,16.67
2018-01-11T14:00:10.723Z,18.50
2018-01-11T14:02:39.029Z,15.17
2018-01-11T14:05:06.531Z,15.00
2018-01-11T14:07:34.059Z,15.03
2018-01-11T14:10:01.564Z,15.13
2018-01-11T14:12:29.089Z,17.90
2018-01-11T14:14:56.616Z,11.60
2018-01-11T14:17:24.164Z,16.70
2018-01-11T14:19:52.438Z,11.60
2018-01-11T14:22:20.729Z,13.60
2018-01-11T14:24:49.021Z,14.00
2018-01-11T14:27:16.529Z,15.37
2018-01-11T14:29:44.067Z,14.47
2018-01-11T14:32:11.531Z,19.30
2018-01-11T14:34:39.096Z,23.00
2018-01-11T14:37:06.624Z,20.70
2018-01-11T14:39:34.148Z,16.70
2018-01-11T14:42:02.424Z,18.27
2018-01-11T14:44:30.728Z,16.10
2018-01-11T14:46:58.241Z,18.37
2018-01-11T14:49:25.782Z,18.83
2018-01-11T14:51:53.286Z,17.50
2018-01-11T14:54:21.555Z,18.83
2018-01-11T14:56:49.863Z,23.80
2018-01-11T14:59:17.391Z,20.97
2018-01-11T15:01:45.671Z,18.87
2018-01-11T15:04:13.968Z,18.17
2018-01-11T15:06:41.475Z,21.73
2018-01-11T15:09:09.020Z,25.10
2018-01-11T15:11:36.527Z,20.90
2018-01-11T15:14:04.799Z,25.90
2018-01-11T15:16:33.108Z,29.73
2018-01-11T15:19:00.610Z,21.90
2018-01-11T15:21:28.155Z,18.80
2018-01-11T15:23:55.659Z,24.43
2018-01-11T15:26:23.927Z,27.63
2018-01-11T15:28:52.222Z,22.60
2018-01-11T15:31:19.750Z,26.93
2018-01-11T15:36:22.071Z,28.50
2018-01-11T15:38:49.600Z,29.00
2018-01-11T15:41:17.103Z,28.17
2018-01-11T15:43:44.632Z,25.47
2018-01-11T15:46:12.908Z,33.10
2018-01-11T15:48:41.212Z,34.90
2018-01-11T15:51:08.712Z,30.60
2018-01-11T15:53:36.235Z,32.03
2018-01-11T15:56:03.766Z,33.80
2018-01-11T15:58:32.060Z,31.77
2018-01-11T16:00:59.575Z,26.57
2018-01-11T16:03:27.108Z,41.20
2018-01-11T16:05:54.636Z,39.23
2018-01-11T16:08:22.143Z,32.43
2018-01-11T16:13:23.567Z,35.87
2018-01-11T16:15:51.098Z,39.80
2018-01-11T16:18:19.363Z,61.67
2018-01-11T16:20:46.895Z,36.40
2018-01-11T16:23:14.421Z,37.67
2018-01-11T16:25:41.946Z,42.87
2018-01-11T16:28:10.218Z,37.27
2018-01-11T16:30:37.763Z,38.73
2018-01-11T16:33:05.275Z,34.50
2018-01-11T16:35:32.795Z,36.53
2018-01-11T16:38:00.326Z,41.83
2018-01-11T16:40:27.827Z,41.43
2018-01-11T16:42:56.128Z,46.67
2018-01-11T16:45:23.639Z,40.20
2018-01-11T16:47:51.175Z,37.07
2018-01-11T16:50:18.679Z,45.30
2018-01-11T16:52:46.948Z,40.20
2018-01-11T16:55:15.247Z,40.23
2018-01-11T16:57:42.776Z,43.77
2018-01-11T17:00:11.271Z,41.80
2018-01-11T17:02:39.392Z,42.47
2018-01-11T17:05:06.896Z,38.17
2018-01-11T17:07:35.208Z,40.63
2018-01-11T17:10:02.711Z,38.60
2018-01-11T17:12:30.248Z,43.00
2018-01-11T17:14:57.755Z,43.50
2018-01-11T17:17:26.058Z,45.13
2018-01-11T17:19:53.591Z,44.80
2018-01-11T17:22:21.902Z,44.63
2018-01-11T17:24:49.440Z,49.03
2018-01-11T17:27:16.968Z,42.90
2018-01-11T17:29:44.494Z,45.30
2018-01-11T17:32:12.020Z,45.53
2018-01-11T17:34:40.298Z,44.40
2018-01-11T17:37:07.830Z,36.13
2018-01-11T17:39:35.374Z,39.33
2018-01-11T17:42:02.907Z,41.60
2018-01-11T17:44:30.439Z,51.93
2018-01-11T17:46:58.307Z,37.90
2018-01-11T17:49:25.924Z,37.10
2018-01-11T17:51:53.441Z,38.80
2018-01-11T17:54:21.102Z,39.77
2018-01-11T17:56:49.986Z,39.10
2018-01-11T17:59:18.375Z,38.93
2018-01-11T18:01:47.394Z,44.47
2018-01-11T18:04:16.242Z,46.00
2018-01-11T18:06:44.738Z,38.60
2018-01-11T18:09:13.524Z,43.97
2018-01-11T18:11:41.931Z,43.70
2018-01-11T18:14:09.555Z,42.17
2018-01-11T18:16:37.262Z,42.77
2018-01-11T18:19:04.980Z,47.80
2018-01-11T18:21:32.518Z,48.63
2018-01-11T18:24:00.818Z,42.37
2018-01-11T18:26:28.389Z,51.70
2018-01-11T18:28:55.899Z,55.57
2018-01-11T18:31:23.406Z,44.10
2018-01-11T18:33:50.938Z,44.00
2018-01-11T18:36:19.213Z,45.53
2018-01-11T18:38:47.518Z,46.63
2018-01-11T18:41:15.027Z,49.57
2018-01-11T18:43:42.581Z,48.90
2018-01-11T18:46:10.404Z,46.07
2018-01-11T18:48:37.914Z,48.67
2018-01-11T18:51:05.443Z,47.73
2018-01-11T18:53:32.968Z,47.40
2018-01-11T18:56:00.485Z,62.80
2018-01-11T18:58:28.012Z,53.53
2018-01-11T19:00:55.534Z,61.20
2018-01-11T19:03:23.802Z,68.90
2018-01-11T19:05:52.099Z,76.40
2018-01-11T19:08:19.607Z,68.23
2018-01-11T19:10:47.132Z,61.60
2018-01-11T19:13:14.635Z,54.70
2018-01-11T19:15:42.160Z,60.47
2018-01-11T19:18:09.664Z,61.90
2018-01-11T19:20:37.958Z,53.50
2018-01-11T19:23:06.222Z,48.97
2018-01-11T19:25:34.534Z,52.83
2018-01-11T19:28:02.047Z,48.97
2018-01-11T19:30:29.557Z,58.40
2018-01-11T19:32:57.086Z,48.00
2018-01-11T19:35:25.354Z,55.57
2018-01-11T19:37:53.656Z,41.20
2018-01-11T19:40:21.193Z,48.97
2018-01-11T19:42:49.463Z,50.43
2018-01-11T19:45:17.759Z,48.50
2018-01-11T19:47:45.287Z,55.47
2018-01-11T19:50:12.826Z,46.00
2018-01-11T19:52:40.917Z,52.67
2018-01-11T19:55:08.491Z,51.87
2018-01-11T19:57:36.788Z,55.30
2018-01-11T20:00:04.303Z,53.70
2018-01-11T20:02:31.827Z,50.53
2018-01-11T20:04:59.354Z,50.30
2018-01-11T20:07:26.888Z,59.87
2018-01-11T20:09:54.769Z,62.07
2018-01-11T20:12:23.064Z,57.17
2018-01-11T20:14:51.335Z,51.87
2018-01-11T20:17:19.639Z,58.10
2018-01-11T20:19:47.149Z,73.33
2018-01-11T20:22:14.652Z,50.07
2018-01-11T20:24:42.189Z,67.53
2018-01-11T20:27:10.459Z,58.73
2018-01-11T20:29:38.764Z,53.17
2018-01-11T20:32:06.407Z,53.03
2018-01-11T20:34:34.685Z,53.73
2018-01-11T20:37:02.955Z,52.50
2018-01-11T20:39:31.257Z,57.20
2018-01-11T20:41:58.766Z,54.20
2018-01-11T20:44:26.301Z,54.00
2018-01-11T20:46:53.807Z,53.23
2018-01-11T20:49:22.103Z,52.33
2018-01-11T20:51:49.621Z,58.20
2018-01-11T20:54:17.151Z,66.67
2018-01-11T20:56:44.709Z,59.60
2018-01-11T20:59:12.235Z,51.43
2018-01-11T21:01:39.752Z,58.40
2018-01-11T21:04:08.759Z,61.10
2018-01-11T21:06:36.296Z,60.93
2018-01-11T21:09:03.799Z,52.47
2018-01-11T21:11:32.099Z,61.33
2018-01-11T21:13:59.606Z,69.07
2018-01-11T21:16:27.139Z,75.40
2018-01-11T21:18:55.411Z,74.70
2018-01-11T21:21:22.968Z,72.90
2018-01-11T21:23:50.471Z,67.10
2018-01-11T21:26:18.741Z,64.90
2018-01-11T21:28:47.374Z,65.60
2018-01-11T21:31:15.190Z,71.37
2018-01-11T21:33:42.719Z,63.80
2018-01-11T21:36:10.228Z,67.83
2018-01-11T21:38:38.524Z,65.03
2018-01-11T21:41:06.029Z,69.97
2018-01-11T21:43:33.563Z,69.17
2018-01-11T21:46:04.405Z,66.97
2018-01-11T21:48:31.978Z,88.97
2018-01-11T21:53:48.696Z,66.07
2018-01-11T21:56:16.227Z,70.27
2018-01-11T21:58:43.779Z,74.27
2018-01-11T22:01:11.288Z,70.40
2018-01-11T22:03:38.846Z,79.47
2018-01-11T22:06:06.650Z,82.17
2018-01-11T22:08:34.837Z,77.30
2018-01-11T22:11:02.783Z,77.27
2018-01-11T22:13:31.104Z,85.20
2018-01-11T22:15:58.618Z,97.73
2018-01-11T22:18:26.903Z,102.23
2018-01-11T22:20:55.210Z,103.00
2018-01-11T22:23:22.720Z,106.20
2018-01-11T22:25:50.279Z,96.83
2018-01-11T22:28:17.789Z,106.80
2018-01-11T22:30:45.321Z,88.97
2018-01-11T22:33:13.615Z,121.57
2018-01-11T22:35:41.169Z,116.40
2018-01-11T22:38:08.704Z,98.53
2018-01-11T22:40:36.971Z,113.57
2018-01-11T22:43:04.520Z,120.73
2018-01-11T22:45:32.017Z,112.07
2018-01-11T22:47:59.551Z,103.20
2018-01-11T22:50:27.132Z,121.13
2018-01-11T22:52:55.403Z,123.90
2018-01-11T22:55:23.709Z,114.37
2018-01-11T22:57:51.230Z,119.90
2018-01-11T23:00:23.507Z,111.93
2018-01-11T23:02:51.788Z,131.13
2018-01-11T23:05:20.084Z,130.53
2018-01-11T23:07:47.622Z,124.80
2018-01-11T23:10:15.899Z,116.87
2018-01-11T23:12:44.201Z,108.20
2018-01-11T23:15:11.739Z,132.80
2018-01-11T23:17:40.055Z,115.43
2018-01-11T23:20:07.572Z,108.23
2018-01-11T23:22:35.884Z,105.83
2018-01-11T23:25:03.395Z,94.87
2018-01-11T23:27:30.908Z,107.50
2018-01-11T23:29:58.444Z,106.10
2018-01-11T23:32:26.271Z,105.37
2018-01-11T23:34:53.807Z,103.50
2018-01-11T23:37:21.330Z,94.13
2018-01-11T23:39:48.843Z,106.17
2018-01-11T23:42:16.378Z,104.27
2018-01-11T23:44:43.907Z,101.37
2018-01-11T23:47:11.429Z,87.80
2018-01-11T23:49:38.923Z,111.27
2018-01-11T23:52:06.464Z,99.90
2018-01-11T23:54:34.768Z,106.07
2018-01-11T23:57:02.284Z,91.40
2018-01-11T23:59:29.812Z,100.30
